createdAt,value
2023-02-09T00:00:28.403Z,20.08
2023-02-09T00:03:32.063Z,16.23
2023-02-09T00:06:35.238Z,16.73
2023-02-09T00:09:40.085Z,15.15
2023-02-09T00:12:59.885Z,16.38
2023-02-09T00:21:21.739Z,15.98
2023-02-09T00:25:32.681Z,16.92
2023-02-09T00:28:56.489Z,18.08
2023-02-09T00:31:59.774Z,18.73
2023-02-09T00:35:08.889Z,20.60
2023-02-09T00:38:13.915Z,18.38
2023-02-09T00:41:17.716Z,16.42
2023-02-09T00:44:29.430Z,17.77
2023-02-09T00:47:32.605Z,17.65
2023-02-09T00:50:36.147Z,17.73
2023-02-09T00:53:39.286Z,18.73
2023-02-09T00:56:45.615Z,18.02
2023-02-09T00:59:53.092Z,18.33
2023-02-09T01:02:59.945Z,17.88
2023-02-09T01:06:03.340Z,16.70
2023-02-09T01:13:29.725Z,16.95
2023-02-09T01:16:35.060Z,18.00
2023-02-09T01:19:38.506Z,16.63
2023-02-09T01:22:44.362Z,16.40
2023-02-09T01:31:47.327Z,16.17
2023-02-09T01:35:32.302Z,13.50
2023-02-09T01:39:51.385Z,15.50
2023-02-09T01:43:14.673Z,15.55
2023-02-09T01:46:17.875Z,15.70
2023-02-09T01:49:38.144Z,15.85
2023-02-09T01:52:43.398Z,15.10
2023-02-09T01:55:52.308Z,15.75
2023-02-09T01:58:55.685Z,13.57
2023-02-09T02:01:58.992Z,15.18
2023-02-09T02:05:06.488Z,14.80
2023-02-09T02:08:17.110Z,15.48
2023-02-09T02:11:22.204Z,15.15
2023-02-09T02:15:09.108Z,15.65
2023-02-09T02:18:24.957Z,16.80
2023-02-09T02:22:17.026Z,15.63
2023-02-09T02:26:03.347Z,15.02
2023-02-09T02:29:29.841Z,14.63
2023-02-09T02:33:10.842Z,15.60
2023-02-09T02:36:23.007Z,15.45
2023-02-09T02:39:39.695Z,15.13
2023-02-09T02:42:50.176Z,13.90
2023-02-09T02:46:03.418Z,14.02
2023-02-09T02:49:15.138Z,14.32
2023-02-09T02:52:36.486Z,13.90
2023-02-09T02:56:18.970Z,13.93
2023-02-09T02:59:33.948Z,14.93
2023-02-09T03:02:42.177Z,14.00
2023-02-09T03:05:54.528Z,12.70
2023-02-09T03:14:43.250Z,12.20
2023-02-09T03:17:52.481Z,12.98
2023-02-09T03:31:09.449Z,16.20
2023-02-09T03:38:35.457Z,15.48
2023-02-09T03:41:38.961Z,15.60
2023-02-09T03:44:42.364Z,19.02
2023-02-09T03:48:01.801Z,19.30
2023-02-09T03:51:06.697Z,18.25
2023-02-09T03:54:10.386Z,20.25
2023-02-09T04:02:39.149Z,22.48
2023-02-09T04:11:27.275Z,20.90
2023-02-09T04:14:35.433Z,21.05
2023-02-09T04:17:38.584Z,21.45
2023-02-09T04:20:41.708Z,20.15
2023-02-09T04:23:45.065Z,18.20
2023-02-09T04:26:49.711Z,20.33
2023-02-09T04:29:52.881Z,17.20
2023-02-09T04:34:25.176Z,18.38
2023-02-09T04:37:28.408Z,21.25
2023-02-09T04:40:31.905Z,23.58
2023-02-09T04:43:50.602Z,22.27
2023-02-09T04:46:53.854Z,19.20
2023-02-09T04:49:58.737Z,22.17
2023-02-09T04:53:01.935Z,18.33
2023-02-09T04:56:06.734Z,19.63
2023-02-09T04:59:27.816Z,22.40
2023-02-09T05:02:31.039Z,25.30
2023-02-09T05:05:39.577Z,23.70
2023-02-09T05:08:42.852Z,27.25
2023-02-09T05:11:55.331Z,24.60
2023-02-09T05:14:58.426Z,25.83
2023-02-09T05:18:01.578Z,24.23
2023-02-09T05:21:06.466Z,22.30
2023-02-09T05:24:10.681Z,21.75
2023-02-09T05:27:16.517Z,21.13
2023-02-09T05:39:09.182Z,18.52
2023-02-09T05:42:28.160Z,21.20
2023-02-09T05:45:31.332Z,21.10
2023-02-09T05:48:34.505Z,19.48
2023-02-09T05:51:37.798Z,19.75
2023-02-09T05:54:42.260Z,21.35
2023-02-09T05:57:45.440Z,21.58
2023-02-09T06:01:38.336Z,23.02
2023-02-09T06:05:08.852Z,22.50
2023-02-09T06:11:55.504Z,22.25
2023-02-09T06:14:58.918Z,20.77
2023-02-09T06:18:02.110Z,19.15
2023-02-09T06:21:15.951Z,20.63
2023-02-09T06:24:19.426Z,20.42
2023-02-09T06:28:03.237Z,22.17
2023-02-09T06:37:05.633Z,33.42
2023-02-09T06:40:09.389Z,33.90
2023-02-09T06:43:12.513Z,21.42
2023-02-09T06:46:16.550Z,17.05
2023-02-09T06:49:26.519Z,15.35
2023-02-09T06:52:35.269Z,16.73
2023-02-09T06:55:44.574Z,17.27
2023-02-09T07:03:39.738Z,23.00
2023-02-09T07:06:43.054Z,22.65
2023-02-09T07:09:47.527Z,19.38
2023-02-09T07:12:50.759Z,20.92
2023-02-09T07:15:57.948Z,22.83
2023-02-09T07:19:01.177Z,17.15
2023-02-09T07:22:04.425Z,15.32
2023-02-09T07:25:09.546Z,18.25
2023-02-09T07:28:15.256Z,20.70
2023-02-09T07:31:18.845Z,22.75
2023-02-09T07:34:22.479Z,18.38
2023-02-09T07:37:25.653Z,16.77
2023-02-09T07:40:32.479Z,17.80
2023-02-09T07:43:36.146Z,18.10
2023-02-09T07:46:39.506Z,20.42
2023-02-09T07:49:42.834Z,20.05
2023-02-09T07:52:47.721Z,22.05
2023-02-09T07:55:52.316Z,16.45
2023-02-09T07:58:56.598Z,14.75
2023-02-09T08:02:41.286Z,15.60
2023-02-09T08:10:46.160Z,14.05
2023-02-09T08:13:54.050Z,12.95
2023-02-09T08:17:24.114Z,14.18
2023-02-09T08:20:30.879Z,14.93
2023-02-09T08:23:37.564Z,13.38
2023-02-09T08:26:50.856Z,13.18
2023-02-09T08:29:55.832Z,12.15
2023-02-09T08:33:20.592Z,11.02
2023-02-09T08:36:23.869Z,12.40
2023-02-09T08:39:34.730Z,10.15
2023-02-09T08:42:40.141Z,11.95
2023-02-09T08:45:45.210Z,10.60
2023-02-09T08:48:48.689Z,12.75
2023-02-09T08:51:52.345Z,11.98
2023-02-09T08:54:56.064Z,10.43
2023-02-09T08:58:12.972Z,10.23
2023-02-09T09:01:17.570Z,10.65
2023-02-09T09:04:21.810Z,10.32
2023-02-09T09:07:25.094Z,10.32
2023-02-09T09:10:28.494Z,9.82
2023-02-09T09:17:59.642Z,6.85
2023-02-09T09:21:03.026Z,8.05
2023-02-09T09:24:06.451Z,7.28
2023-02-09T09:27:11.554Z,7.38
2023-02-09T09:30:15.406Z,7.10
2023-02-09T09:33:19.971Z,7.90
2023-02-09T09:36:23.205Z,8.15
2023-02-09T09:39:26.741Z,7.25
2023-02-09T09:42:45.289Z,8.43
2023-02-09T09:45:49.110Z,6.30
2023-02-09T09:48:56.734Z,7.55
2023-02-09T09:52:08.342Z,8.52
2023-02-09T09:55:23.195Z,8.43
2023-02-09T09:58:26.706Z,6.95
2023-02-09T10:01:34.347Z,7.90
2023-02-09T10:04:39.259Z,8.80
2023-02-09T10:13:15.867Z,8.88
2023-02-09T10:16:24.825Z,8.82
2023-02-09T10:19:29.371Z,9.05
2023-02-09T10:22:34.230Z,8.63
2023-02-09T10:25:55.327Z,8.85
2023-02-09T10:29:00.628Z,9.88
2023-02-09T10:34:34.898Z,9.55
2023-02-09T10:37:40.621Z,9.73
2023-02-09T10:40:44.492Z,8.70
2023-02-09T10:43:53.424Z,10.80
2023-02-09T10:47:11.660Z,9.45
2023-02-09T10:50:19.237Z,11.25
2023-02-09T10:53:25.875Z,10.25
2023-02-09T10:57:17.354Z,11.13
2023-02-09T11:00:40.232Z,11.63
2023-02-09T11:03:59.065Z,10.75
2023-02-09T11:07:16.211Z,10.32
2023-02-09T11:10:20.395Z,11.93
2023-02-09T11:13:26.144Z,11.55
2023-02-09T11:16:48.368Z,11.65
2023-02-09T11:20:02.932Z,11.05
2023-02-09T11:23:34.114Z,11.95
2023-02-09T11:26:50.641Z,12.00
2023-02-09T11:30:05.408Z,10.60
2023-02-09T11:33:18.119Z,11.50
2023-02-09T11:36:40.676Z,12.18
2023-02-09T11:39:55.482Z,13.18
2023-02-09T11:43:16.494Z,13.23
2023-02-09T11:46:35.202Z,12.23
2023-02-09T11:49:45.342Z,13.80
2023-02-09T11:52:55.964Z,10.90
2023-02-09T11:56:03.128Z,12.48
2023-02-09T11:59:27.516Z,13.90
2023-02-09T12:02:47.397Z,12.38
2023-02-09T12:05:51.716Z,11.70
2023-02-09T12:09:04.098Z,11.07
2023-02-09T12:12:25.342Z,14.18
2023-02-09T12:20:56.390Z,13.27
2023-02-09T12:24:00.214Z,13.85
2023-02-09T12:27:26.842Z,13.00
2023-02-09T12:31:02.945Z,14.90
2023-02-09T12:34:38.929Z,12.70
2023-02-09T12:38:18.256Z,14.45
2023-02-09T12:41:24.209Z,16.08
2023-02-09T12:44:39.814Z,13.25
2023-02-09T12:47:45.486Z,12.80
2023-02-09T12:50:52.261Z,14.00
2023-02-09T12:53:55.975Z,12.90
2023-02-09T12:57:52.427Z,13.63
2023-02-09T13:14:59.226Z,12.77
2023-02-09T13:18:19.897Z,13.73
2023-02-09T13:21:36.769Z,16.23
2023-02-09T13:24:45.848Z,14.10
2023-02-09T13:33:59.982Z,13.88
2023-02-09T13:37:18.810Z,16.65
2023-02-09T13:50:16.622Z,16.85
2023-02-09T13:53:24.696Z,14.80
2023-02-09T13:56:29.673Z,13.63
2023-02-09T14:04:56.391Z,16.70
2023-02-09T14:13:29.922Z,14.35
2023-02-09T14:16:41.685Z,13.30
2023-02-09T14:19:57.884Z,16.30
2023-02-09T14:28:20.481Z,13.10
2023-02-09T14:31:29.144Z,14.75
2023-02-09T14:34:36.487Z,12.80
2023-02-09T14:42:17.924Z,16.85
2023-02-09T14:45:31.791Z,18.35
2023-02-09T14:48:36.303Z,15.93
2023-02-09T14:51:39.513Z,17.80
2023-02-09T14:54:47.968Z,16.70
2023-02-09T14:57:51.123Z,17.42
2023-02-09T15:00:56.323Z,18.88
2023-02-09T15:04:00.832Z,19.67
2023-02-09T15:07:04.680Z,18.80
2023-02-09T15:10:12.686Z,19.50
2023-02-09T15:16:19.487Z,20.15
2023-02-09T15:19:24.137Z,18.13
2023-02-09T15:22:27.515Z,18.90
2023-02-09T15:25:30.745Z,17.63
2023-02-09T15:28:34.283Z,16.73
2023-02-09T15:31:37.491Z,19.00
2023-02-09T15:34:42.235Z,18.15
2023-02-09T15:37:48.936Z,17.55
2023-02-09T15:41:12.308Z,18.20
2023-02-09T15:44:36.137Z,16.83
2023-02-09T15:47:53.540Z,16.95
2023-02-09T15:51:00.802Z,18.10
2023-02-09T15:54:13.354Z,18.17
2023-02-09T15:57:18.680Z,18.83
2023-02-09T16:00:24.816Z,19.10
2023-02-09T16:03:28.600Z,18.42
2023-02-09T16:06:35.567Z,18.70
2023-02-09T16:09:40.775Z,19.13
2023-02-09T16:12:44.075Z,18.65
2023-02-09T16:15:47.906Z,18.83
2023-02-09T16:18:51.065Z,19.77
2023-02-09T16:21:59.286Z,17.55
2023-02-09T16:25:02.614Z,19.35
2023-02-09T16:28:05.963Z,19.42
2023-02-09T16:34:26.710Z,19.27
2023-02-09T16:37:32.522Z,17.90
2023-02-09T16:40:35.717Z,16.27
2023-02-09T16:43:40.902Z,20.45
2023-02-09T16:46:46.929Z,22.50
2023-02-09T16:49:58.791Z,24.35
2023-02-09T16:53:04.662Z,21.08
2023-02-09T16:56:10.160Z,21.27
2023-02-09T16:59:14.288Z,23.83
2023-02-09T17:02:30.471Z,23.45
2023-02-09T17:05:37.878Z,23.13
2023-02-09T17:08:41.004Z,23.92
2023-02-09T17:11:44.153Z,23.13
2023-02-09T17:14:47.236Z,26.30
2023-02-09T17:17:54.124Z,27.17
2023-02-09T17:21:02.065Z,28.52
2023-02-09T17:27:11.256Z,24.77
2023-02-09T17:30:16.940Z,28.17
2023-02-09T17:33:24.672Z,29.40
2023-02-09T17:36:31.008Z,29.13
2023-02-09T17:39:37.395Z,27.08
2023-02-09T17:42:41.572Z,28.15
2023-02-09T17:45:48.959Z,28.55
2023-02-09T17:48:52.402Z,28.13
2023-02-09T17:51:57.194Z,28.95
2023-02-09T17:55:00.620Z,26.52
2023-02-09T17:58:04.133Z,27.10
2023-02-09T18:01:22.406Z,27.73
2023-02-09T18:04:28.540Z,27.38
2023-02-09T18:07:33.352Z,28.20
2023-02-09T18:10:37.271Z,29.90
2023-02-09T18:13:40.600Z,27.90
2023-02-09T18:16:44.592Z,29.38
2023-02-09T18:19:47.796Z,32.03
2023-02-09T18:22:52.619Z,34.35
2023-02-09T18:25:55.808Z,31.48
2023-02-09T18:28:58.955Z,31.58
2023-02-09T18:32:04.316Z,27.73
2023-02-09T18:35:08.167Z,30.40
2023-02-09T18:38:15.346Z,38.58
2023-02-09T18:41:18.586Z,40.80
2023-02-09T18:44:23.626Z,36.22
2023-02-09T18:47:27.103Z,43.40
2023-02-09T18:50:32.602Z,38.72
2023-02-09T18:53:37.955Z,39.53
2023-02-09T18:56:41.116Z,39.25
2023-02-09T18:59:46.800Z,40.00
2023-02-09T19:02:53.183Z,36.03
2023-02-09T19:05:56.490Z,38.63
2023-02-09T19:09:01.454Z,38.92
2023-02-09T19:12:05.794Z,41.42
2023-02-09T19:15:09.681Z,41.05
2023-02-09T19:18:12.991Z,33.97
2023-02-09T19:21:16.102Z,36.47
2023-02-09T19:24:20.814Z,35.92
2023-02-09T19:27:26.744Z,37.45
2023-02-09T19:30:29.878Z,35.58
2023-02-09T19:33:33.031Z,38.40
2023-02-09T19:36:36.320Z,36.20
2023-02-09T19:39:41.560Z,38.63
2023-02-09T19:42:45.010Z,40.00
2023-02-09T19:45:56.547Z,43.40
2023-02-09T19:49:00.965Z,48.28
2023-02-09T19:52:04.596Z,45.40
2023-02-09T19:55:09.607Z,40.20
2023-02-09T19:58:12.799Z,40.90
2023-02-09T20:01:16.506Z,43.15
2023-02-09T20:04:19.699Z,40.20
2023-02-09T20:07:22.884Z,39.55
2023-02-09T20:10:27.519Z,39.30
2023-02-09T20:13:30.664Z,37.72
2023-02-09T20:16:33.898Z,38.28
2023-02-09T20:19:37.366Z,37.25
2023-02-09T20:22:40.571Z,40.50
2023-02-09T20:25:45.371Z,37.20
2023-02-09T20:28:48.818Z,37.75
2023-02-09T20:31:52.220Z,34.40
2023-02-09T20:34:55.765Z,37.28
2023-02-09T20:37:59.925Z,33.25
2023-02-09T20:41:08.138Z,31.77
2023-02-09T20:44:30.974Z,36.45
2023-02-09T20:47:34.106Z,34.97
2023-02-09T20:50:37.500Z,36.42
2023-02-09T20:53:40.696Z,38.17
2023-02-09T20:56:45.194Z,37.72
2023-02-09T20:59:48.457Z,39.28
2023-02-09T21:02:51.771Z,36.40
2023-02-09T21:05:54.953Z,30.52
2023-02-09T21:08:58.127Z,39.83
2023-02-09T21:12:05.320Z,38.72
2023-02-09T21:15:08.929Z,38.80
2023-02-09T21:18:12.310Z,42.83
2023-02-09T21:21:17.592Z,39.80
2023-02-09T21:24:21.380Z,40.80
2023-02-09T21:27:26.304Z,37.70
2023-02-09T21:30:30.106Z,42.65
2023-02-09T21:33:35.999Z,43.58
2023-02-09T21:36:39.201Z,42.80
2023-02-09T21:39:42.495Z,43.28
2023-02-09T21:42:49.480Z,44.20
2023-02-09T21:45:52.843Z,44.20
2023-02-09T21:48:56.541Z,37.35
2023-02-09T21:52:00.281Z,39.13
2023-02-09T21:55:04.059Z,39.40
2023-02-09T21:58:08.838Z,44.72
2023-02-09T22:01:12.429Z,39.80
2023-02-09T22:04:15.706Z,42.13
2023-02-09T22:07:19.063Z,42.22
2023-02-09T22:10:22.335Z,45.78
2023-02-09T22:13:27.005Z,49.75
2023-02-09T22:16:30.404Z,47.05
2023-02-09T22:19:33.491Z,52.83
2023-02-09T22:22:36.768Z,51.47
2023-02-09T22:25:39.959Z,50.33
2023-02-09T22:28:44.509Z,49.40
2023-02-09T22:34:23.612Z,49.38
2023-02-09T22:37:26.780Z,44.40
2023-02-09T22:40:29.855Z,45.92
2023-02-09T22:43:32.991Z,41.33
2023-02-09T22:46:37.781Z,47.03
2023-02-09T22:49:46.135Z,42.90
2023-02-09T22:52:49.353Z,44.05
2023-02-09T22:55:52.567Z,37.03
2023-02-09T22:58:56.621Z,42.63
2023-02-09T23:01:59.808Z,43.00
2023-02-09T23:05:04.884Z,40.70
2023-02-09T23:08:08.031Z,35.92
2023-02-09T23:11:13.766Z,38.47
2023-02-09T23:14:17.253Z,38.42
2023-02-09T23:17:20.457Z,35.47
2023-02-09T23:20:24.930Z,36.40
2023-02-09T23:23:28.089Z,40.72
2023-02-09T23:26:31.480Z,43.50
2023-02-09T23:29:34.691Z,38.05
2023-02-09T23:32:38.191Z,41.35
2023-02-09T23:35:42.919Z,41.17
2023-02-09T23:38:47.592Z,40.90
2023-02-09T23:41:50.979Z,40.13
2023-02-09T23:44:54.129Z,39.00
2023-02-09T23:47:57.332Z,45.10
2023-02-09T23:51:03.714Z,43.78
2023-02-09T23:54:08.316Z,46.13
2023-02-09T23:57:11.434Z,47.42
